createdAt,value
2019-04-27T00:01:23.294Z,89.65
2019-04-27T00:06:29.788Z,89.67
2019-04-27T00:11:45.481Z,89.94
2019-04-27T00:17:12.910Z,89.51
2019-04-27T00:22:28.455Z,90.49
2019-04-27T00:27:33.934Z,91.09
2019-04-27T00:32:39.888Z,90.83
2019-04-27T00:37:54.922Z,90.93
2019-04-27T00:43:00.255Z,91.12
2019-04-27T00:48:05.891Z,90.38
2019-04-27T00:53:16.764Z,90.85
2019-04-27T00:58:33.840Z,90.47
2019-04-27T01:04:03.627Z,89.53
2019-04-27T01:09:13.361Z,89.60
2019-04-27T01:14:19.107Z,89.01
2019-04-27T01:19:24.584Z,89.46
2019-04-27T01:24:30.724Z,89.75
2019-04-27T01:29:36.757Z,89.25
2019-04-27T01:34:42.229Z,89.62
2019-04-27T01:39:48.597Z,89.86
2019-04-27T01:44:55.104Z,89.00
2019-04-27T01:50:00.641Z,89.10
2019-04-27T01:55:08.649Z,89.63
2019-04-27T02:00:40.469Z,89.48
2019-04-27T02:05:56.162Z,89.33
2019-04-27T02:11:03.581Z,88.98
2019-04-27T02:16:09.419Z,89.24
2019-04-27T02:21:14.872Z,88.82
2019-04-27T02:26:21.562Z,89.35
2019-04-27T02:31:35.871Z,89.14
2019-04-27T02:36:41.278Z,89.22
2019-04-27T02:41:49.885Z,88.63
2019-04-27T02:46:55.365Z,88.42
2019-04-27T02:52:09.546Z,88.52
2019-04-27T02:57:15.417Z,87.79
2019-04-27T03:02:45.474Z,88.39
2019-04-27T03:07:50.924Z,88.53
2019-04-27T03:13:03.820Z,88.06
2019-04-27T03:18:13.982Z,87.81
2019-04-27T03:23:20.014Z,88.15
2019-04-27T03:28:26.131Z,87.88
2019-04-27T03:33:32.890Z,87.96
2019-04-27T03:38:39.858Z,88.05
2019-04-27T03:43:45.501Z,88.13
2019-04-27T03:48:51.861Z,88.25
2019-04-27T03:54:12.642Z,88.55
2019-04-27T03:59:42.856Z,87.76
2019-04-27T04:04:50.714Z,87.94
2019-04-27T04:09:55.586Z,88.16
2019-04-27T04:15:00.988Z,88.36
2019-04-27T04:20:10.132Z,88.02
2019-04-27T04:25:16.565Z,87.92
2019-04-27T04:30:22.748Z,88.48
2019-04-27T04:35:32.439Z,88.80
2019-04-27T04:40:41.906Z,88.41
2019-04-27T04:45:56.480Z,88.33
2019-04-27T04:51:02.336Z,88.36
2019-04-27T04:56:08.581Z,88.15
2019-04-27T05:01:16.915Z,89.23
2019-04-27T05:06:25.616Z,88.57
2019-04-27T05:11:31.142Z,89.11
2019-04-27T05:16:39.093Z,89.06
2019-04-27T05:21:45.681Z,90.26
2019-04-27T05:26:51.631Z,89.78
2019-04-27T05:31:59.177Z,90.04
2019-04-27T05:37:05.724Z,89.44
2019-04-27T05:42:16.969Z,89.74
2019-04-27T05:47:43.361Z,90.03
2019-04-27T05:52:49.648Z,90.26
2019-04-27T05:57:59.165Z,90.55
2019-04-27T06:03:08.985Z,90.17
2019-04-27T06:08:14.330Z,90.57
2019-04-27T06:13:20.124Z,90.54
2019-04-27T06:18:27.073Z,90.37
2019-04-27T06:23:33.083Z,90.59
2019-04-27T06:28:53.780Z,89.90
2019-04-27T06:34:01.042Z,90.37
2019-04-27T06:39:09.926Z,90.03
2019-04-27T06:44:15.554Z,89.62
2019-04-27T06:49:20.880Z,87.28
2019-04-27T06:54:28.682Z,86.02
2019-04-27T06:59:33.806Z,85.85
2019-04-27T07:04:41.868Z,85.56
2019-04-27T07:09:49.286Z,83.82
2019-04-27T07:14:55.196Z,79.87
2019-04-27T07:20:02.613Z,78.44
2019-04-27T07:25:09.067Z,79.33
2019-04-27T07:30:15.670Z,77.95
2019-04-27T07:35:22.725Z,79.17
2019-04-27T07:40:30.340Z,80.06
2019-04-27T07:45:39.578Z,78.60
2019-04-27T07:50:46.240Z,78.30
2019-04-27T07:55:51.489Z,77.51
2019-04-27T08:00:57.122Z,75.67
2019-04-27T08:06:02.602Z,76.37
2019-04-27T08:11:08.846Z,75.65
2019-04-27T08:16:15.429Z,74.99
2019-04-27T08:21:20.950Z,72.49
2019-04-27T08:26:32.377Z,72.61
2019-04-27T08:31:55.351Z,70.68
2019-04-27T08:37:00.854Z,71.31
2019-04-27T08:42:06.570Z,70.04
2019-04-27T08:47:15.168Z,70.27
2019-04-27T08:52:20.620Z,66.96
2019-04-27T08:57:25.852Z,68.17
2019-04-27T09:02:44.437Z,67.42
2019-04-27T09:07:59.779Z,66.79
2019-04-27T09:13:15.704Z,66.37
2019-04-27T09:18:23.051Z,67.15
2019-04-27T09:23:28.763Z,66.77
2019-04-27T09:28:34.015Z,65.45
2019-04-27T09:33:39.520Z,65.07
2019-04-27T09:38:46.507Z,63.90
2019-04-27T09:43:53.133Z,63.69
2019-04-27T09:48:58.539Z,63.65
2019-04-27T09:54:05.869Z,61.25
2019-04-27T09:59:11.845Z,61.94
2019-04-27T10:04:21.125Z,58.26
2019-04-27T10:09:29.519Z,56.68
2019-04-27T10:14:34.011Z,58.01
2019-04-27T10:19:39.276Z,56.50
2019-04-27T10:24:44.909Z,55.91
2019-04-27T10:29:50.438Z,57.97
2019-04-27T10:34:56.214Z,54.20
2019-04-27T10:40:01.576Z,54.17
2019-04-27T10:45:13.724Z,56.89
2019-04-27T10:50:19.999Z,56.65
2019-04-27T10:55:26.200Z,60.63
2019-04-27T11:00:39.864Z,59.17
2019-04-27T11:06:05.996Z,60.44
2019-04-27T11:11:12.472Z,58.94
2019-04-27T11:16:20.287Z,56.51
2019-04-27T11:21:26.235Z,55.79
2019-04-27T11:26:33.278Z,57.83
2019-04-27T11:31:38.542Z,54.85
2019-04-27T11:36:55.946Z,55.31
2019-04-27T11:42:01.363Z,56.23
2019-04-27T11:47:06.847Z,54.74
2019-04-27T11:52:16.202Z,55.33
2019-04-27T11:57:28.500Z,55.94
2019-04-27T12:02:35.801Z,54.97
2019-04-27T12:07:47.871Z,54.69
2019-04-27T12:12:56.324Z,56.00
2019-04-27T12:18:02.577Z,55.88
2019-04-27T12:23:07.976Z,53.90
2019-04-27T12:28:23.569Z,53.05
2019-04-27T12:33:30.412Z,50.40
2019-04-27T12:38:36.646Z,49.72
2019-04-27T12:43:46.739Z,48.18
2019-04-27T12:48:55.314Z,46.66
2019-04-27T12:54:08.932Z,48.62
2019-04-27T12:59:32.058Z,47.33
2019-04-27T13:04:38.415Z,44.71
2019-04-27T13:09:46.046Z,47.74
2019-04-27T13:14:51.634Z,44.16
2019-04-27T13:19:57.376Z,44.03
2019-04-27T13:25:02.698Z,41.68
2019-04-27T13:30:10.616Z,39.97
2019-04-27T13:35:16.565Z,42.33
2019-04-27T13:40:22.497Z,41.81
2019-04-27T13:45:38.627Z,40.05
2019-04-27T13:50:47.990Z,42.17
2019-04-27T13:55:56.613Z,42.60
2019-04-27T14:01:02.846Z,42.57
2019-04-27T14:06:08.446Z,42.17
2019-04-27T14:11:15.555Z,43.60
2019-04-27T14:16:21.753Z,44.61
2019-04-27T14:21:34.413Z,43.71
2019-04-27T14:26:40.795Z,44.73
2019-04-27T14:31:49.695Z,45.35
2019-04-27T14:36:58.752Z,44.85
2019-04-27T14:42:04.577Z,45.23
2019-04-27T14:47:13.371Z,45.60
2019-04-27T14:52:20.370Z,50.80
2019-04-27T14:57:29.189Z,50.52
2019-04-27T15:02:35.028Z,50.39
2019-04-27T15:07:40.500Z,50.12
2019-04-27T15:12:45.821Z,49.47
2019-04-27T15:17:51.240Z,50.80
2019-04-27T15:22:57.940Z,52.08
2019-04-27T15:28:12.197Z,53.04
2019-04-27T15:33:36.213Z,52.08
2019-04-27T15:38:51.200Z,51.48
2019-04-27T15:43:55.394Z,55.12
2019-04-27T15:49:03.173Z,56.19
2019-04-27T15:54:12.012Z,56.77
2019-04-27T15:59:21.125Z,57.98
2019-04-27T16:04:28.239Z,56.76
2019-04-27T16:09:33.625Z,57.03
2019-04-27T16:14:40.983Z,57.12
2019-04-27T16:19:50.231Z,55.53
2019-04-27T16:24:58.120Z,54.85
2019-04-27T16:30:09.584Z,54.69
2019-04-27T16:35:14.049Z,53.10
2019-04-27T16:40:24.459Z,52.69
2019-04-27T16:45:28.768Z,52.21
2019-04-27T16:50:34.217Z,51.79
2019-04-27T16:55:40.311Z,52.13
2019-04-27T17:00:47.644Z,51.50
2019-04-27T17:05:53.199Z,51.38
2019-04-27T17:11:08.047Z,52.57
2019-04-27T17:16:18.867Z,52.15
2019-04-27T17:21:25.717Z,52.96
2019-04-27T17:26:31.586Z,53.41
2019-04-27T17:31:40.282Z,53.83
2019-04-27T17:36:48.466Z,54.52
2019-04-27T17:41:55.368Z,54.90
2019-04-27T17:47:01.651Z,55.98
2019-04-27T17:52:08.777Z,55.46
2019-04-27T17:57:17.953Z,56.01
2019-04-27T18:02:23.827Z,56.21
2019-04-27T18:07:34.870Z,56.48
2019-04-27T18:12:39.026Z,57.17
2019-04-27T18:17:50.090Z,57.67
2019-04-27T18:22:58.934Z,57.89
2019-04-27T18:28:15.992Z,57.79
2019-04-27T18:33:18.547Z,58.15
2019-04-27T18:38:25.645Z,60.07
2019-04-27T18:43:31.187Z,62.92
2019-04-27T18:49:01.320Z,63.23
2019-04-27T18:54:08.146Z,63.47
2019-04-27T18:59:14.718Z,65.15
2019-04-27T19:04:20.242Z,65.73
2019-04-27T19:09:25.680Z,66.62
2019-04-27T19:14:31.346Z,68.94
2019-04-27T19:19:36.607Z,70.31
2019-04-27T19:24:42.118Z,70.28
2019-04-27T19:29:51.643Z,71.27
2019-04-27T19:34:59.342Z,71.97
2019-04-27T19:40:05.432Z,70.34
2019-04-27T19:45:13.345Z,71.87
2019-04-27T19:50:19.640Z,71.51
2019-04-27T19:55:25.880Z,71.02
2019-04-27T20:00:48.762Z,71.24
2019-04-27T20:05:54.597Z,70.56
2019-04-27T20:11:00.107Z,70.09
2019-04-27T20:16:05.647Z,73.05
2019-04-27T20:21:12.402Z,71.81
2019-04-27T20:26:17.919Z,72.07
2019-04-27T20:31:23.244Z,72.33
2019-04-27T20:36:28.452Z,73.30
2019-04-27T20:41:34.348Z,72.88
2019-04-27T20:46:41.569Z,71.75
2019-04-27T20:52:04.905Z,72.74
2019-04-27T20:57:13.832Z,72.96
2019-04-27T21:02:52.105Z,71.77
2019-04-27T21:08:01.549Z,73.39
2019-04-27T21:13:06.869Z,73.55
2019-04-27T21:18:14.431Z,73.00
2019-04-27T21:23:21.064Z,73.57
2019-04-27T21:28:26.609Z,75.10
2019-04-27T21:33:34.216Z,73.13
2019-04-27T21:38:41.138Z,72.98
2019-04-27T21:43:46.848Z,74.11
2019-04-27T21:48:53.151Z,72.63
2019-04-27T21:54:04.002Z,72.73
2019-04-27T21:59:10.729Z,72.64
2019-04-27T22:04:16.758Z,73.70
2019-04-27T22:09:22.576Z,74.49
2019-04-27T22:14:27.863Z,74.78
2019-04-27T22:19:34.800Z,73.74
2019-04-27T22:24:42.846Z,73.03
2019-04-27T22:29:47.609Z,73.90
2019-04-27T22:34:53.724Z,74.18
2019-04-27T22:40:18.439Z,73.08
2019-04-27T22:45:27.838Z,73.01
2019-04-27T22:50:33.072Z,73.33
2019-04-27T22:55:57.443Z,73.94
2019-04-27T23:01:12.129Z,73.26
2019-04-27T23:06:17.915Z,74.42
2019-04-27T23:11:23.404Z,75.12
2019-04-27T23:16:31.934Z,75.26
2019-04-27T23:21:38.211Z,75.67
2019-04-27T23:26:44.072Z,76.90
2019-04-27T23:31:58.323Z,76.56
2019-04-27T23:37:03.710Z,77.19
2019-04-27T23:42:09.049Z,77.29
2019-04-27T23:47:14.458Z,77.28
2019-04-27T23:52:25.611Z,79.36
2019-04-27T23:57:31.670Z,81.27
